Tropical Cyclones
[Index]
Main Index Home Page Stock Weather Photos Extreme Storms Discussion Storm News and Storm Chasing Reports Tropical Cyclones / Hurricanes / Typhoons Weather Data and Links Wild Fires / Bushfires Weather Observation Techniques Weather Picture Catalogue Tornado Pictures and Reports Stock Video Footage and DVDs for sale
Season 2009-2010 Tropical Cyclone RENE Track Map
Season 2009-2010 Summaries: [BoM-AU] [JTWC-AU] [JTWC-SIO] [JTWC-SPAC] [JTWC-SH]
<<- Previous TC | JTWC 2009-2010 Season | Next TC ->>

click for intensity scale information  Lat/long Grid: Show Hide

 Date Labels: Show Hide

Joint Typhoon Warning Centre Cyclone Data

Name: RENE

09 Feb 2010 06:00 UTC to 18 Feb 2010 18:00 UTC

    date/time    lat    long     hPa   cat  kts
2010-02-09 06   11.0   174.8W   1010         15          
2010-02-09 12   11.7   173.9W   1009         15          
2010-02-09 18   12.2   172.6W   1007         20          
2010-02-10 00   12.6   171.2W   1007         20          
2010-02-10 06   12.7   169.8W   1002         25          
2010-02-10 12   12.6   168.9W   1000         30          
2010-02-10 18   12.5   168.2W    996         35          
2010-02-11 00   12.3   167.5W    993    1    40          
2010-02-11 06   12.4   166.8W    989    1    45          
2010-02-11 12   12.4   166.1W    982    2    55          
2010-02-11 12   12.4   166.1W    982    2    55          
2010-02-11 18   12.7   166.3W    982    2    55          
2010-02-11 18   12.7   166.3W    982    2    55          
2010-02-12 00   13.0   166.5W    982    2    55          
2010-02-12 00   13.0   166.5W    982    2    55          
2010-02-12 06   13.3   166.8W    978    2    60          
2010-02-12 06   13.3   166.8W    978    2    60          
2010-02-12 12   13.8   167.3W    978    2    60          
2010-02-12 12   13.8   167.3W    978    2    60          
2010-02-12 18   13.9   168.0W    974    2    65          
2010-02-12 18   13.9   168.0W    974    2    65          
2010-02-13 00   13.9   168.7W    970    2    70          
2010-02-13 00   13.9   168.7W    970    2    70          
2010-02-13 00   13.9   168.7W    970    2    70          
2010-02-13 06   13.9   169.2W    963    3    80          
2010-02-13 06   13.9   169.2W    963    3    80          
2010-02-13 06   13.9   169.2W    963    3    80          
2010-02-13 12   14.8   169.6W    956    3    90          
2010-02-13 12   14.8   169.6W    956    3    90          
2010-02-13 12   14.8   169.6W    956    3    90          
2010-02-13 18   15.8   170.1W    948    4   100          
2010-02-13 18   15.8   170.1W    948    4   100          
2010-02-13 18   15.8   170.1W    948    4   100          
2010-02-14 00   16.6   171.1W    948    4   100          
2010-02-14 00   16.6   171.1W    948    4   100          
2010-02-14 00   16.6   171.1W    948    4   100          
2010-02-14 06   17.2   172.1W    952    3    95          
2010-02-14 06   17.2   172.1W    952    3    95          
2010-02-14 06   17.2   172.1W    952    3    95          
2010-02-14 12   17.8   173.1W    956    3    90          
2010-02-14 12   17.8   173.1W    956    3    90          
2010-02-14 12   17.8   173.1W    956    3    90          
2010-02-14 18   18.7   173.8W    956    3    90          
2010-02-14 18   18.7   173.8W    956    3    90          
2010-02-14 18   18.7   173.8W    956    3    90          
2010-02-15 00   19.7   174.4W    963    3    80          
2010-02-15 00   19.7   174.4W    963    3    80          
2010-02-15 00   19.7   174.4W    963    3    80          
2010-02-15 06   20.9   175.0W    963    3    80          
2010-02-15 06   20.9   175.0W    963    3    80          
2010-02-15 06   20.9   175.0W    963    3    80          
2010-02-15 12   21.8   176.0W    970    2    70          
2010-02-15 12   21.8   176.0W    970    2    70          
2010-02-15 12   21.8   176.0W    970    2    70          
2010-02-15 18   22.6   177.2W    978    2    60          
2010-02-15 18   22.6   177.2W    978    2    60          
2010-02-16 00   23.8   178.1W    985    1    50          
2010-02-16 06   24.3   179.6W    989    1    45          
2010-02-16 12   25.1   179.2     993    1    40          
2010-02-16 18   25.9   178.1     996         35          
2010-02-17 00   26.3   176.9    1000         30          
2010-02-17 06   26.7   176.1    1000         30          
2010-02-17 12   27.4   175.9    1000         30          
2010-02-17 18   28.3   175.4    1004         25          
2010-02-18 00   29.4   175.4    1004         25          
2010-02-18 06   30.3   175.8    1004         25          
2010-02-18 12   31.4   177.2    1007         20          
2010-02-18 18   32.8   179.5    1007         20          
Winds are 1-min average.

Tropical cyclone tracks developed by Michael Bath using data from the Joint Typhoon Warning Centre Best Tracks and Google Maps.


[Australian Severe Weather index] [Copyright Notice] [Email Contacts] [Search This Site] [Privacy Policy]
Document: tropical_cyclone_rene.htm Updated: 28 June 2017